Historique des mesures à Cassis (13260), France
Quotidien Résumé Novembre 12, 2017 Unités:  Métrique    US   Métrique/US
« Précédent (Jour)
Suivant (Jour) »
Quotidien Hebdomadaire Mensuel Annuel Période au choix
  Maximum: Minimum: Moyenne:
Température: TemperatureC °C 11.5 °C 14.8 °C
Point de rosée: DewpointC °C 1.1 °C 7.8 °C
Humidité: Humidity % 49 % 60 %
Vitesse du vent: 0 km/h 0 km/h 22.9 km/h
Rafales: 0 km/h - -
Vent:- - South
Pression: PressurehPa hPa 999.9 hPa -
Précipitations: 0.0 mm    
Historical Graphs
 
 
Mesures pour : Novembre 12, 2017
Heure Temperature Point de rosée Pression Vent Vitesse du vent Rafales Humidité Pluie (par heure) Conditions
TemperatureC °C DewpointC °C PressurehPa hPa Calm     Humidity % HourlyPrecipMM mm SoftwareType W/m2
00:10 15.6 °C 7.1 °C 1011.1 hPa North 18.7 km/h 24.8 km/h 57 % 0.0 mm open2300-1.11 W/m2
01:11 15.5 °C 7.5 °C 1011.4 hPa NNW 17.4 km/h 19.6 km/h 59 % 0.0 mm open2300-1.11 W/m2
02:10 15.3 °C 7.6 °C 1010.7 hPa NNE 25.4 km/h 26.7 km/h 60 % 0.0 mm open2300-1.11 W/m2
03:11 15.3 °C 8.1 °C 1009.7 hPa WNW 60.8 km/h 60.8 km/h 62 % 0.0 mm open2300-1.11 W/m2
04:10 15.1 °C 8.3 °C 1010.0 hPa North 20.9 km/h 26.7 km/h 64 % 0.0 mm open2300-1.11 W/m2
05:11 15.1 °C 8.6 °C 1010.4 hPa North 17.9 km/h 27.2 km/h 65 % 0.0 mm open2300-1.11 W/m2
06:10 15.1 °C 8.6 °C 1010.7 hPa NNE 12.7 km/h 19.2 km/h 65 % 0.0 mm open2300-1.11 W/m2
07:11 14.7 °C 8.4 °C 1010.4 hPa NNE 12.2 km/h 17.9 km/h 66 % 0.0 mm open2300-1.11 W/m2
08:10 14.2 °C 7.9 °C 1010.7 hPa NNE 7.6 km/h 16.3 km/h 66 % 0.0 mm open2300-1.11 W/m2
09:11 14.8 °C 7.6 °C 1010.4 hPa NNW 30.7 km/h 51 km/h 62 % 0.0 mm open2300-1.11 W/m2
10:10 15.2 °C 7.2 °C 1010.4 hPa NNW 9.8 km/h 20.9 km/h 59 % 0.0 mm open2300-1.11 W/m2
11:11 16.2 °C 7.1 °C 1010.0 hPa North 17.9 km/h 47.3 km/h 55 % 0.0 mm open2300-1.11 W/m2
12:10 17.2 °C 7.2 °C 1008.7 hPa NNW 10.3 km/h 37.5 km/h 52 % 0.0 mm open2300-1.11 W/m2
13:11 16.6 °C 8.6 °C 1008.0 hPa NNE 26.7 km/h 26.7 km/h 59 % 0.0 mm open2300-1.11 W/m2
14:10 16.7 °C 9.8 °C 1006.7 hPa NW 38.3 km/h 38.3 km/h 64 % 0.0 mm open2300-1.11 W/m2
15:11 17.1 °C 10.0 °C 1005.6 hPa Calm   36 km/h 63 % 0.0 mm open2300-1.11 W/m2
16:10 16.7 °C 10.1 °C 1005.0 hPa West 23 km/h 23 km/h 65 % 0.0 mm open2300-1.11 W/m2
17:11 16.2 °C 9.9 °C 1004.6 hPa NNW 9.3 km/h 55.7 km/h 66 % 0.0 mm open2300-1.11 W/m2
18:10 15.9 °C 9.6 °C 1003.6 hPa WNW 33.6 km/h 49.7 km/h 66 % 0.0 mm open2300-1.11 W/m2
19:11 15.6 °C 9.7 °C 1002.9 hPa NNW 37.5 km/h 37.5 km/h 68 % 0.0 mm open2300-1.11 W/m2
20:10 15.4 °C 10.4 °C 1001.2 hPa West 32.3 km/h 46.8 km/h 72 % 0.0 mm open2300-1.11 W/m2
21:11 15.7 °C 10.7 °C 999.9 hPa North 13.2 km/h 46.3 km/h 72 % 0.0 mm open2300-1.11 W/m2
22:10 12.3 °C 4.3 °C 1000.2 hPa NW 46.3 km/h 46.3 km/h 58 % 0.0 mm open2300-1.11 W/m2
23:11 11.5 °C 1.1 °C 999.9 hPa NW 50.5 km/h 50.5 km/h 49 % 0.0 mm open2300-1.11 W/m2
Observations météo à CASSIS
WU-History script by Weather Underground - 1 mb